Frank Wiley Field Miles City US
ICAO: KMLS
IATA: MLS
Category: Medium
Scheduled Services: Yes

Elevation: 2630 ft
TransAlt. 18000 ft.

Airport Communications:
ASOS:135.575
GREAT FALLS RDO:122.2
CTAF/UNICOM:123

KMLS Zoom In..

If you have problems with the map follow the link
https://www.worldairports.se/pages/airport.php?
ICAO=KMLS

Runways:

(A) RW 04 length 5680 ft width 75 ft
---- / hdg 40

(B) RW 12 length 5628 ft width 100 ft
---- / hdg 123

(C) RW 22 length 5680 ft width 75 ft
---- / hdg 220

(D) RW 30 length 5628 ft width 100 ft
---- / hdg 303

Location; KMLS
Day. 10 / Time. 01.05 Zulu
* Altimeter: 30.08
* Temperature: -11° c. -12.2°f.
* Wind from: 350° Speed 16 kn.
Dewpoint: -14° c.
Visibility: 10 Statute Miles.
Clouds: Scattered 1800 ft.
Clouds: Overcast 1000 ft.

KMLS 100105Z AUTO 35016KT 10SM SCT018 OVC100 M11/M14 A3008 RMK AO2 T11061139


Wind From 350°
Speed 16 kn.

 
 
jpsmedia worldairports.se 2019   terms of use